Time;durP1;ratioP1;P1;durP2;ratioP2;P2;SDS_P1;SDS_P2;PMS_P1;PMS_P2;Temp;Humidity;BMP_temperature;BMP_pressure;BME280_temperature;BME280_humidity;BME280_pressure;Samples;Min_cycle;Max_cycle;Signal;HPM_P1;HPM_P2
2023/01/19 00:00:14;;;;;;;34.10;16.02;;;-2.00;99.90;;;;;;5084476;28;20059;-62
2023/01/19 00:02:40;;;;;;;37.63;16.17;;;-2.00;99.90;;;;;;4727989;28;9999636;-64
2023/01/19 00:05:06;;;;;;;29.30;15.00;;;-2.00;99.90;;;;;;5068908;28;20032;-63
2023/01/19 00:07:32;;;;;;;37.53;17.13;;;-2.00;99.90;;;;;;5070262;28;20503;-63
2023/01/19 00:09:58;;;;;;;35.22;15.95;;;-2.00;99.90;;;;;;5072370;28;20389;-63
2023/01/19 00:12:25;;;;;;;32.38;16.23;;;-2.00;99.90;;;;;;5094666;28;20035;-63
2023/01/19 00:14:51;;;;;;;42.72;17.52;;;-2.10;99.90;;;;;;5089566;28;20031;-62
2023/01/19 00:17:16;;;;;;;44.58;17.58;;;-2.00;99.90;;;;;;5089815;28;20036;-62
2023/01/19 00:19:42;;;;;;;38.53;17.23;;;-1.10;99.90;;;;;;5091972;28;20142;-62
2023/01/19 00:22:07;;;;;;;39.55;17.23;;;-2.00;99.90;;;;;;5091684;28;20031;-63
2023/01/19 00:24:33;;;;;;;43.65;17.25;;;-2.00;99.90;;;;;;5091764;28;20024;-62
2023/01/19 00:27:02;;;;;;;38.63;16.92;;;-1.80;99.90;;;;;;5073609;28;20028;-64
2023/01/19 00:29:32;;;;;;;36.90;17.58;;;-2.00;99.90;;;;;;5082763;28;20103;-62
2023/01/19 00:31:59;;;;;;;35.38;16.55;;;-1.80;99.90;;;;;;5078799;28;20012;-62
2023/01/19 00:34:25;;;;;;;47.97;17.75;;;-2.00;99.90;;;;;;5091247;28;20440;-64
2023/01/19 00:36:50;;;;;;;57.85;18.92;;;-2.00;99.90;;;;;;5091788;28;20403;-59
2023/01/19 00:39:16;;;;;;;38.80;17.17;;;-2.00;99.90;;;;;;5091712;28;20020;-61
2023/01/19 00:44:25;;;;;;;37.90;16.83;;;-2.00;99.90;;;;;;5111995;28;20065;-63
2023/01/19 00:46:51;;;;;;;40.58;17.50;;;-1.40;99.90;;;;;;5111792;28;20036;-63
2023/01/19 00:49:17;;;;;;;33.80;16.33;;;-2.10;99.90;;;;;;5078385;28;20095;-65
2023/01/19 00:51:43;;;;;;;48.00;17.58;;;-2.00;99.90;;;;;;5071090;28;20052;-64
2023/01/19 00:54:09;;;;;;;55.08;18.27;;;-2.10;99.90;;;;;;5070972;28;20031;-60
2023/01/19 00:56:35;;;;;;;41.92;16.77;;;-2.00;99.90;;;;;;5071088;28;20031;-63
2023/01/19 00:59:01;;;;;;;45.80;17.95;;;-2.00;99.90;;;;;;5071203;28;20025;-62
2023/01/19 01:01:27;;;;;;;36.53;16.40;;;-2.00;99.90;;;;;;5071151;28;20273;-61
2023/01/19 01:03:52;;;;;;;50.53;17.48;;;-2.00;99.90;;;;;;5071788;28;20448;-56
2023/01/19 01:06:19;;;;;;;38.55;16.05;;;-2.00;99.90;;;;;;5071132;28;20077;-63
2023/01/19 01:08:44;;;;;;;56.53;17.15;;;-2.00;99.90;;;;;;5070924;28;20111;-59
2023/01/19 01:11:10;;;;;;;33.20;16.42;;;-2.00;99.90;;;;;;5070925;28;20100;-61
2023/01/19 01:13:36;;;;;;;36.60;16.08;;;-2.10;99.90;;;;;;5070771;28;20025;-65
2023/01/19 01:16:02;;;;;;;43.33;17.38;;;-2.10;99.90;;;;;;5070884;28;20028;-61
2023/01/19 01:18:27;;;;;;;42.13;17.52;;;-2.10;99.90;;;;;;5070959;28;20111;-61
2023/01/19 01:21:00;;;;;;;40.42;17.27;;;-2.10;99.90;;;;;;5071960;28;20039;-63
2023/01/19 01:23:26;;;;;;;34.75;16.73;;;-2.10;99.90;;;;;;5070620;28;20499;-60
2023/01/19 01:25:51;;;;;;;30.30;15.88;;;-2.10;99.90;;;;;;5070710;28;20036;-61
2023/01/19 01:28:17;;;;;;;38.15;16.17;;;-2.20;99.90;;;;;;5070767;28;20028;-63
2023/01/19 01:30:43;;;;;;;40.55;15.98;;;-2.20;99.90;;;;;;5070690;28;20016;-61
2023/01/19 01:33:10;;;;;;;50.97;17.05;;;-2.30;99.90;;;;;;5070546;28;20468;-60
2023/01/19 01:35:36;;;;;;;41.88;16.77;;;-2.30;99.90;;;;;;5070776;28;20025;-59
2023/01/19 01:38:02;;;;;;;43.00;17.75;;;-2.40;99.90;;;;;;5072924;28;20020;-59
2023/01/19 01:40:27;;;;;;;35.55;17.88;;;-2.40;99.90;;;;;;5080640;28;20026;-62
2023/01/19 01:42:53;;;;;;;47.58;17.52;;;-2.40;99.90;;;;;;5115014;28;20031;-64
2023/01/19 01:45:28;;;;;;;40.65;16.90;;;-2.30;99.90;;;;;;5115472;28;20133;-60
2023/01/19 01:47:57;;;;;;;42.20;18.40;;;-2.30;99.90;;;;;;5096743;28;20024;-63
2023/01/19 01:50:26;;;;;;;43.33;17.58;;;-2.30;99.90;;;;;;5115352;28;20023;-61
2023/01/19 01:52:58;;;;;;;40.05;17.70;;;-2.10;99.90;;;;;;5114867;28;20020;-64
2023/01/19 01:55:25;;;;;;;40.53;18.23;;;-2.30;99.90;;;;;;5077310;28;20741;-65
2023/01/19 01:57:59;;;;;;;43.00;17.38;;;-2.20;99.90;;;;;;5074340;28;20396;-60
2023/01/19 02:00:25;;;;;;;37.53;16.85;;;-2.40;99.90;;;;;;5074586;28;20090;-63
2023/01/19 02:02:51;;;;;;;40.50;16.83;;;-2.40;99.90;;;;;;5074133;28;20497;-61
2023/01/19 02:05:30;;;;;;;49.33;16.65;;;-2.40;99.90;;;;;;5074169;28;20473;-57
2023/01/19 02:13:37;;;;;;;43.25;17.40;;;-2.40;99.90;;;;;;5094555;28;20107;-64
2023/01/19 02:16:06;;;;;;;42.05;17.08;;;-2.50;99.90;;;;;;5119240;22;20088;-63
2023/01/19 02:18:33;;;;;;;42.38;16.75;;;-2.60;99.90;;;;;;5074163;28;20063;-64
2023/01/19 02:21:19;;;;;;;36.25;16.23;;;-2.60;99.90;;;;;;5073844;28;20438;-62
2023/01/19 02:23:48;;;;;;;41.72;16.15;;;-2.70;99.90;;;;;;5057342;28;20040;-61
2023/01/19 02:26:22;;;;;;;41.83;17.25;;;-2.70;99.90;;;;;;5055391;28;20044;-64
2023/01/19 02:29:00;;;;;;;43.95;15.85;;;-2.70;99.90;;;;;;5073701;28;20021;-63
2023/01/19 02:31:28;;;;;;;45.17;17.55;;;-2.70;99.90;;;;;;5073928;28;20073;-63
2023/01/19 02:33:54;;;;;;;43.15;17.88;;;-2.70;99.90;;;;;;5073733;28;20115;-63
2023/01/19 02:36:26;;;;;;;41.92;17.30;;;-2.70;99.90;;;;;;5073289;28;20031;-63
2023/01/19 02:38:55;;;;;;;38.45;17.27;;;-2.20;99.90;;;;;;5070246;28;20024;-65
2023/01/19 02:41:25;;;;;;;47.58;17.02;;;-2.80;99.90;;;;;;5074224;28;20104;-63
2023/01/19 02:43:52;;;;;;;42.63;17.25;;;-2.80;99.90;;;;;;5088325;28;20020;-60
2023/01/19 02:46:18;;;;;;;48.88;18.80;;;-2.80;99.90;;;;;;5094496;28;20103;-63
2023/01/19 02:48:44;;;;;;;50.13;19.25;;;-2.80;99.90;;;;;;5094019;28;20173;-67
2023/01/19 02:51:17;;;;;;;54.28;18.65;;;-2.90;99.90;;;;;;5093503;28;20044;-62
2023/01/19 02:54:15;;;;;;;42.13;18.50;;;-2.90;99.90;;;;;;5094676;28;20032;-61
2023/01/19 02:56:53;;;;;;;52.42;19.25;;;-2.90;99.90;;;;;;5071231;28;20025;-65
2023/01/19 02:59:45;;;;;;;47.92;18.85;;;-2.90;99.90;;;;;;5073386;28;20024;-62
2023/01/19 03:02:23;;;;;;;52.25;21.48;;;-3.00;99.90;;;;;;5073442;28;20056;-65
2023/01/19 03:05:05;;;;;;;41.10;18.98;;;-2.90;99.90;;;;;;5073643;28;20024;-64
2023/01/19 03:07:58;;;;;;;53.50;20.33;;;-3.00;99.90;;;;;;5073547;28;20032;-64
2023/01/19 03:10:48;;;;;;;53.90;19.30;;;-3.00;99.90;;;;;;5072917;28;20387;-62
2023/01/19 03:13:55;;;;;;;47.38;20.45;;;-3.10;99.90;;;;;;5072638;28;20044;-64
2023/01/19 03:16:34;;;;;;;57.10;22.38;;;-3.00;99.90;;;;;;5072946;28;20177;-62
2023/01/19 03:19:23;;;;;;;56.47;21.77;;;-3.10;99.90;;;;;;5073245;28;20020;-63
2023/01/19 03:21:57;;;;;;;55.95;20.55;;;-3.00;99.90;;;;;;5072697;28;20028;-62
2023/01/19 03:24:27;;;;;;;59.58;23.15;;;-3.00;99.90;;;;;;5072569;28;20032;-62
2023/01/19 03:27:04;;;;;;;74.63;23.73;;;-3.00;99.90;;;;;;5072556;28;20029;-62
2023/01/19 03:29:36;;;;;;;56.00;22.95;;;-2.80;99.90;;;;;;5072592;28;20025;-63
2023/01/19 03:32:05;;;;;;;63.13;23.35;;;-2.90;99.90;;;;;;5084618;28;20088;-62
2023/01/19 03:34:33;;;;;;;53.67;22.33;;;-2.90;99.90;;;;;;5074715;28;20422;-61
2023/01/19 03:37:02;;;;;;;63.97;23.85;;;-2.80;99.90;;;;;;5093131;28;20020;-64
2023/01/19 03:39:28;;;;;;;58.92;22.20;;;-2.90;99.90;;;;;;5092984;28;20130;-66
2023/01/19 03:42:00;;;;;;;64.75;24.75;;;-2.40;99.90;;;;;;5093139;28;20055;-64
2023/01/19 03:44:28;;;;;;;52.53;21.85;;;-2.90;99.90;;;;;;5090282;28;20103;-62
2023/01/19 03:46:54;;;;;;;71.07;23.15;;;-2.90;99.90;;;;;;5072294;28;20025;-62
2023/01/19 03:49:20;;;;;;;58.30;23.30;;;-3.00;99.90;;;;;;5072392;28;20020;-66
2023/01/19 03:51:46;;;;;;;65.68;23.83;;;-2.90;99.90;;;;;;5054518;28;20024;-63
2023/01/19 03:54:12;;;;;;;71.80;24.60;;;-2.90;99.90;;;;;;5072117;28;20564;-63
2023/01/19 03:56:37;;;;;;;55.17;22.35;;;-2.80;99.90;;;;;;5072245;28;20480;-63
2023/01/19 03:59:06;;;;;;;71.28;24.85;;;-2.90;99.90;;;;;;5072185;28;20028;-64
2023/01/19 04:01:31;;;;;;;59.80;22.45;;;-2.90;99.90;;;;;;5071816;28;20021;-63
2023/01/19 04:03:57;;;;;;;55.50;22.63;;;-2.90;99.90;;;;;;5071856;28;20200;-63
2023/01/19 04:06:23;;;;;;;65.72;24.23;;;-2.90;99.90;;;;;;5071821;28;20020;-61
2023/01/19 04:08:50;;;;;;;56.13;22.83;;;-3.00;99.90;;;;;;5071928;28;20028;-64
2023/01/19 04:11:16;;;;;;;55.95;23.23;;;-3.00;99.90;;;;;;5071817;28;20029;-67
2023/01/19 04:13:42;;;;;;;67.32;23.42;;;-3.00;99.90;;;;;;5071995;28;20032;-63
2023/01/19 04:16:09;;;;;;;53.55;22.77;;;-3.00;99.90;;;;;;5054077;28;20057;-65
2023/01/19 04:18:35;;;;;;;57.15;22.83;;;-3.00;99.90;;;;;;5071485;28;20200;-65
2023/01/19 04:21:03;;;;;;;55.50;22.60;;;-3.00;99.90;;;;;;5071640;28;20496;-65
2023/01/19 04:23:29;;;;;;;53.13;22.48;;;-3.10;99.90;;;;;;5071378;28;20017;-65
2023/01/19 04:25:59;;;;;;;61.53;24.25;;;-3.10;99.90;;;;;;5071786;28;20050;-62
2023/01/19 04:28:25;;;;;;;54.92;21.90;;;-3.10;99.90;;;;;;5071365;28;20021;-64
2023/01/19 04:30:51;;;;;;;48.42;21.48;;;-3.10;99.90;;;;;;5073507;28;20526;-64
2023/01/19 04:33:17;;;;;;;59.92;22.60;;;-3.20;99.90;;;;;;5089257;28;20082;-65
2023/01/19 04:35:44;;;;;;;62.58;22.67;;;-3.20;99.90;;;;;;5071830;28;20036;-64
2023/01/19 04:38:10;;;;;;;50.30;22.92;;;-3.20;99.90;;;;;;5071479;28;20029;-64
2023/01/19 04:40:35;;;;;;;56.75;22.50;;;-3.20;99.90;;;;;;5071356;28;20094;-63
2023/01/19 04:43:01;;;;;;;55.97;21.58;;;-3.20;99.90;;;;;;5071284;28;20024;-63
2023/01/19 04:45:27;;;;;;;49.22;22.38;;;-3.20;99.90;;;;;;5071131;28;20052;-64
2023/01/19 04:47:53;;;;;;;61.00;21.02;;;-3.20;99.90;;;;;;5071268;28;20462;-62
2023/01/19 04:50:19;;;;;;;55.10;20.92;;;-3.20;99.90;;;;;;5071080;28;20035;-65
2023/01/19 04:52:44;;;;;;;52.22;21.08;;;-3.20;99.90;;;;;;5070959;28;20037;-62
2023/01/19 04:55:10;;;;;;;49.05;21.55;;;-3.30;99.90;;;;;;5071277;28;20069;-65
2023/01/19 04:57:36;;;;;;;57.30;22.73;;;-3.30;99.90;;;;;;5071080;28;20049;-64
2023/01/19 05:00:03;;;;;;;51.75;20.98;;;-3.40;99.90;;;;;;5071368;28;20054;-65
2023/01/19 05:02:28;;;;;;;55.72;21.10;;;-3.40;99.90;;;;;;5071057;28;20082;-64
2023/01/19 05:04:54;;;;;;;57.88;23.27;;;-3.40;99.90;;;;;;5071036;28;20111;-62
2023/01/19 05:07:19;;;;;;;56.58;21.85;;;-3.30;99.90;;;;;;5070619;28;20166;-65
2023/01/19 05:09:45;;;;;;;50.38;21.02;;;-3.30;99.90;;;;;;5070867;28;20029;-65
2023/01/19 05:12:11;;;;;;;47.65;20.15;;;-3.30;99.90;;;;;;5070188;28;20025;-61
2023/01/19 05:14:36;;;;;;;68.20;24.25;;;-3.20;99.90;;;;;;5070700;28;20028;-63
2023/01/19 05:17:02;;;;;;;54.22;23.45;;;-3.20;99.90;;;;;;5052679;28;20107;-64
2023/01/19 05:19:28;;;;;;;59.28;22.98;;;-3.10;99.90;;;;;;5071034;28;20518;-62
2023/01/19 05:21:54;;;;;;;51.10;22.42;;;-3.10;99.90;;;;;;5063423;28;20136;-64
2023/01/19 05:24:19;;;;;;;46.30;21.45;;;-3.20;99.90;;;;;;5064834;28;20388;-61
2023/01/19 05:26:45;;;;;;;55.83;22.45;;;-3.20;99.90;;;;;;5066832;28;20479;-62
2023/01/19 05:29:11;;;;;;;58.67;21.88;;;-3.30;99.90;;;;;;5066201;28;20030;-62
2023/01/19 05:31:37;;;;;;;53.80;22.35;;;-3.30;99.90;;;;;;5071360;28;20032;-64
2023/01/19 05:34:03;;;;;;;49.45;21.50;;;-3.40;99.90;;;;;;5067317;28;20492;-63
2023/01/19 05:36:29;;;;;;;59.03;21.25;;;-3.40;99.90;;;;;;5067973;28;20511;-65
2023/01/19 05:38:54;;;;;;;47.35;21.75;;;-3.50;99.90;;;;;;5066690;28;20032;-65
2023/01/19 05:41:20;;;;;;;46.47;21.38;;;-3.50;99.90;;;;;;5065666;28;20028;-58
2023/01/19 05:43:46;;;;;;;49.10;22.20;;;-3.40;99.90;;;;;;5066246;28;20024;-64
2023/01/19 05:46:11;;;;;;;61.22;22.13;;;-3.50;99.90;;;;;;5066519;28;20170;-65
2023/01/19 05:48:37;;;;;;;51.47;22.50;;;-3.50;99.90;;;;;;5065334;28;20040;-60
2023/01/19 05:51:04;;;;;;;43.95;21.08;;;-3.40;99.90;;;;;;5066741;28;20503;-63
2023/01/19 05:53:29;;;;;;;57.95;22.50;;;-3.40;99.90;;;;;;5064987;28;20025;-63
2023/01/19 05:56:03;;;;;;;58.78;21.48;;;-3.50;99.90;;;;;;5065929;28;20024;-68
2023/01/19 05:58:30;;;;;;;53.30;19.20;;;-3.50;99.90;;;;;;5066594;28;20013;-66
2023/01/19 06:00:55;;;;;;;49.85;21.52;;;-3.50;99.90;;;;;;5066179;28;20392;-63
2023/01/19 06:03:21;;;;;;;51.95;22.45;;;-3.50;99.90;;;;;;5065302;28;20174;-59
2023/01/19 06:05:46;;;;;;;61.13;22.30;;;-3.60;99.90;;;;;;5066128;28;20028;-64
2023/01/19 06:08:13;;;;;;;63.20;22.88;;;-3.60;99.90;;;;;;5065257;28;20033;-65
2023/01/19 06:10:38;;;;;;;66.40;22.40;;;-3.60;99.90;;;;;;5065465;28;20025;-63
2023/01/19 06:13:04;;;;;;;51.90;20.33;;;-3.60;99.90;;;;;;5064412;28;20488;-63
2023/01/19 06:15:30;;;;;;;53.22;21.33;;;-3.60;99.90;;;;;;5065109;28;20025;-59
2023/01/19 06:17:55;;;;;;;53.13;22.27;;;-3.60;99.90;;;;;;5066244;28;20036;-64
2023/01/19 06:20:21;;;;;;;41.10;18.63;;;-3.60;99.90;;;;;;5065202;28;20021;-62
2023/01/19 06:22:47;;;;;;;50.60;21.58;;;-3.60;99.90;;;;;;5065418;28;20035;-66
2023/01/19 06:25:12;;;;;;;50.28;19.25;;;-3.70;99.90;;;;;;5068891;28;20035;-62
2023/01/19 06:27:41;;;;;;;45.53;21.58;;;-3.70;99.90;;;;;;5068818;28;20028;-64
2023/01/19 06:30:08;;;;;;;61.13;21.45;;;-3.70;99.90;;;;;;5069794;28;20025;-68
2023/01/19 06:32:33;;;;;;;53.35;22.02;;;-3.70;99.90;;;;;;5076740;28;20052;-66
2023/01/19 06:34:59;;;;;;;61.22;22.10;;;-3.70;99.90;;;;;;5069077;28;20502;-58
2023/01/19 06:37:26;;;;;;;53.90;20.23;;;-2.90;99.90;;;;;;5069491;28;20104;-65
2023/01/19 06:39:51;;;;;;;51.70;22.98;;;-3.70;99.90;;;;;;5068078;28;20127;-67
2023/01/19 06:42:17;;;;;;;43.83;19.88;;;-3.80;99.90;;;;;;5069098;28;20024;-62
2023/01/19 06:44:46;;;;;;;55.10;21.63;;;-3.80;99.90;;;;;;5093226;28;20028;-63
2023/01/19 06:47:12;;;;;;;53.05;23.17;;;-3.80;99.90;;;;;;5093847;28;20035;-61
2023/01/19 06:49:38;;;;;;;70.75;24.52;;;-3.80;99.90;;;;;;5093514;28;20023;-62
2023/01/19 06:52:04;;;;;;;53.33;23.23;;;-3.80;99.90;;;;;;5093733;28;20024;-65
2023/01/19 06:54:30;;;;;;;58.25;21.98;;;-3.80;99.90;;;;;;5092395;28;20021;-63
2023/01/19 06:56:55;;;;;;;51.85;21.10;;;-3.70;99.90;;;;;;5052657;28;20028;-63
2023/01/19 06:59:21;;;;;;;45.78;21.17;;;-3.70;99.90;;;;;;5052899;28;20024;-63
2023/01/19 07:01:46;;;;;;;46.05;20.73;;;-3.70;99.90;;;;;;5052373;28;20091;-63
2023/01/19 07:04:14;;;;;;;57.85;23.05;;;-3.70;99.90;;;;;;5051999;28;20108;-61
2023/01/19 07:06:40;;;;;;;52.20;21.63;;;-3.70;99.90;;;;;;5052057;28;20080;-64
2023/01/19 07:09:09;;;;;;;52.97;21.05;;;-3.80;99.90;;;;;;5062231;28;20035;-60
2023/01/19 07:11:35;;;;;;;54.08;19.42;;;-3.80;99.90;;;;;;5073453;28;20048;-63
2023/01/19 07:14:02;;;;;;;56.95;22.52;;;-3.80;99.90;;;;;;5073101;28;20038;-59
2023/01/19 07:16:27;;;;;;;55.22;22.65;;;-3.80;99.90;;;;;;5073009;28;20396;-63
2023/01/19 07:18:53;;;;;;;54.60;21.60;;;-3.80;99.90;;;;;;5073287;28;20028;-63
2023/01/19 07:21:19;;;;;;;55.58;21.38;;;-3.70;99.90;;;;;;5072864;28;20484;-59
2023/01/19 07:23:51;;;;;;;56.03;21.92;;;-3.80;99.90;;;;;;5072273;28;20556;-62
2023/01/19 07:26:19;;;;;;;60.70;21.65;;;-3.70;99.90;;;;;;5068208;28;20032;-63
2023/01/19 07:28:46;;;;;;;57.88;22.10;;;-3.70;99.90;;;;;;5063288;28;20528;-61
2023/01/19 07:31:12;;;;;;;50.85;21.73;;;-3.70;99.90;;;;;;5077075;28;20529;-63
2023/01/19 07:33:38;;;;;;;48.38;21.60;;;-3.70;99.90;;;;;;5092638;28;20085;-63
2023/01/19 07:36:04;;;;;;;47.03;20.02;;;-3.60;99.90;;;;;;5092598;28;20016;-65
2023/01/19 07:38:30;;;;;;;54.08;22.15;;;-3.60;99.90;;;;;;5091207;28;20099;-64
2023/01/19 07:41:03;;;;;;;55.08;21.65;;;-3.60;99.90;;;;;;5066200;28;20170;-62
2023/01/19 07:43:29;;;;;;;37.28;15.35;;;-3.60;99.90;;;;;;5060127;28;20056;-58
2023/01/19 07:45:56;;;;;;;51.25;20.63;;;-3.70;99.90;;;;;;5046958;28;20128;-65
2023/01/19 07:48:22;;;;;;;54.53;20.95;;;-3.60;99.90;;;;;;5072323;28;20397;-61
2023/01/19 07:50:48;;;;;;;48.80;20.67;;;-3.70;99.90;;;;;;5070904;28;20117;-63
2023/01/19 07:53:15;;;;;;;53.05;21.52;;;-3.60;99.90;;;;;;5054131;28;20028;-59
2023/01/19 07:55:41;;;;;;;46.97;21.60;;;-3.60;99.90;;;;;;5064538;28;20404;-61
2023/01/19 07:58:07;;;;;;;54.92;21.48;;;-2.50;99.90;;;;;;5051969;28;20025;-64
2023/01/19 08:00:34;;;;;;;46.10;18.60;;;-3.50;99.90;;;;;;5052341;28;20033;-62
2023/01/19 08:03:00;;;;;;;47.10;18.25;;;-3.40;99.90;;;;;;5051857;28;20033;-65
2023/01/19 08:05:28;;;;;;;43.38;19.77;;;-3.40;99.90;;;;;;5058655;28;20039;-61
2023/01/19 08:07:57;;;;;;;41.58;18.42;;;-3.30;99.90;;;;;;5069270;28;20369;-64
2023/01/19 08:10:25;;;;;;;37.92;17.75;;;-3.30;99.90;;;;;;5071437;28;20112;-64
2023/01/19 08:12:52;;;;;;;34.53;15.95;;;-3.30;99.90;;;;;;5053619;28;20024;-58
2023/01/19 08:15:18;;;;;;;36.92;17.77;;;-3.20;99.90;;;;;;5071492;28;20032;-62
2023/01/19 08:17:44;;;;;;;34.17;17.83;;;-2.40;99.90;;;;;;5082866;22;20055;-64
2023/01/19 08:20:11;;;;;;;36.63;17.25;;;-3.10;99.90;;;;;;5069874;28;20020;-64
2023/01/19 08:22:37;;;;;;;37.80;16.48;;;-3.10;99.90;;;;;;5070879;28;20414;-60
2023/01/19 08:25:03;;;;;;;33.10;16.90;;;-3.00;99.90;;;;;;5070873;28;20446;-65
2023/01/19 08:27:30;;;;;;;33.47;15.65;;;-2.90;99.90;;;;;;5068968;28;20036;-65
2023/01/19 08:29:55;;;;;;;33.90;15.70;;;-2.90;99.90;;;;;;5071475;28;20403;-65
2023/01/19 08:32:21;;;;;;;41.15;15.73;;;-2.90;99.90;;;;;;5070898;28;20017;-62
2023/01/19 08:34:46;;;;;;;23.90;14.18;;;-2.90;99.90;;;;;;5070569;28;20031;-63
2023/01/19 08:37:12;;;;;;;33.08;14.25;;;-2.80;99.90;;;;;;5070790;28;20031;-64
2023/01/19 08:39:38;;;;;;;38.13;15.27;;;-2.80;99.90;;;;;;5070875;28;20024;-64
2023/01/19 08:42:04;;;;;;;29.83;13.48;;;-2.80;99.90;;;;;;5067580;28;20407;-59
2023/01/19 08:44:30;;;;;;;44.92;15.63;;;-2.80;99.90;;;;;;5050227;28;20017;-60
2023/01/19 08:46:55;;;;;;;32.72;14.90;;;-2.80;99.90;;;;;;5050247;28;20087;-62
2023/01/19 08:49:21;;;;;;;28.45;14.90;;;-2.70;99.90;;;;;;5050299;28;20028;-63
2023/01/19 08:51:47;;;;;;;36.33;13.85;;;-2.70;99.90;;;;;;5050737;28;20040;-63
2023/01/19 08:54:14;;;;;;;32.30;15.32;;;-2.60;99.90;;;;;;5050357;28;20025;-64
2023/01/19 08:56:40;;;;;;;30.10;14.93;;;-2.50;99.90;;;;;;5050560;28;20063;-63
2023/01/19 08:59:05;;;;;;;22.02;12.82;;;-2.50;99.90;;;;;;5057084;28;20494;-62
2023/01/19 09:01:31;;;;;;;33.22;15.48;;;-2.40;99.90;;;;;;5070432;28;20569;-64
2023/01/19 09:03:56;;;;;;;25.80;15.05;;;-2.40;99.90;;;;;;5070799;28;20109;-63
2023/01/19 09:06:24;;;;;;;23.65;13.10;;;-2.10;99.90;;;;;;5070731;28;20025;-63
2023/01/19 09:08:49;;;;;;;20.60;10.80;;;-2.20;99.90;;;;;;5070545;28;20016;-65
2023/01/19 09:11:16;;;;;;;20.35;11.95;;;-2.20;99.90;;;;;;5070593;28;20425;-63
2023/01/19 09:13:42;;;;;;;17.75;9.75;;;-2.30;99.90;;;;;;5070231;28;20504;-65
2023/01/19 09:16:10;;;;;;;24.63;12.82;;;-2.20;99.90;;;;;;5068533;28;20044;-63
2023/01/19 09:18:36;;;;;;;25.80;12.07;;;-2.20;99.90;;;;;;5070739;28;20036;-62
2023/01/19 09:21:05;;;;;;;25.65;12.50;;;-2.10;99.90;;;;;;5070593;28;20029;-65
2023/01/19 09:23:31;;;;;;;19.75;10.98;;;-2.10;99.90;;;;;;5070273;28;20428;-61
2023/01/19 09:26:00;;;;;;;25.83;12.35;;;-2.00;99.90;;;;;;5070664;28;20047;-64
2023/01/19 09:28:26;;;;;;;21.95;12.13;;;-1.90;99.90;;;;;;5070171;28;20385;-58
2023/01/19 09:30:52;;;;;;;20.33;12.07;;;-1.90;99.90;;;;;;5051656;28;20527;-63
2023/01/19 09:33:18;;;;;;;34.47;12.07;;;-1.80;99.90;;;;;;5050514;28;20025;-63
2023/01/19 09:35:45;;;;;;;24.35;12.10;;;-1.80;99.90;;;;;;5050631;28;20033;-61
2023/01/19 09:38:14;;;;;;;18.63;10.00;;;-1.70;99.90;;;;;;5050590;28;20550;-64
2023/01/19 09:40:42;;;;;;;15.15;10.45;;;-1.70;99.90;;;;;;5051227;28;20044;-61
2023/01/19 09:43:21;;;;;;;23.70;11.45;;;-1.70;99.90;;;;;;5055023;28;20388;-62
2023/01/19 09:45:49;;;;;;;26.55;11.48;;;-1.60;99.90;;;;;;5070348;28;20024;-56
2023/01/19 09:48:30;;;;;;;16.25;11.18;;;-1.60;99.90;;;;;;5070454;28;20032;-61
2023/01/19 09:51:01;;;;;;;23.02;12.07;;;-1.50;99.90;;;;;;5070321;28;20082;-57
2023/01/19 09:53:29;;;;;;;17.63;10.68;;;-1.50;99.90;;;;;;5070018;28;20025;-61
2023/01/19 09:55:54;;;;;;;25.15;13.40;;;-1.40;99.90;;;;;;5070437;28;20029;-52
2023/01/19 09:58:21;;;;;;;23.48;12.57;;;-1.30;99.90;;;;;;5069784;28;20028;-60
2023/01/19 10:00:57;;;;;;;16.63;11.35;;;-1.30;99.90;;;;;;5072641;28;20028;-60
2023/01/19 10:03:23;;;;;;;22.67;11.70;;;-1.20;99.90;;;;;;5055672;28;20038;-57
2023/01/19 10:06:03;;;;;;;16.30;9.50;;;-1.20;99.90;;;;;;5073439;28;20107;-63
2023/01/19 10:09:07;;;;;;;14.60;10.55;;;-1.10;99.90;;;;;;5073258;28;20514;-63
2023/01/19 10:11:38;;;;;;;21.67;12.75;;;-1.10;99.90;;;;;;5032549;28;20129;-59
2023/01/19 10:14:17;;;;;;;19.13;10.63;;;-1.00;99.90;;;;;;5073380;28;20021;-61
2023/01/19 10:16:57;;;;;;;14.40;9.65;;;-1.00;99.90;;;;;;5063097;28;20541;-64
2023/01/19 10:19:36;;;;;;;27.35;9.98;;;-1.00;99.90;;;;;;5053727;28;20044;-61
2023/01/19 10:22:27;;;;;;;18.55;10.18;;;-0.90;99.90;;;;;;5053143;28;20021;-62
2023/01/19 10:24:59;;;;;;;21.83;10.60;;;-0.90;99.90;;;;;;5053401;28;20040;-61
2023/01/19 10:27:30;;;;;;;15.18;9.48;;;-0.80;99.90;;;;;;5052970;28;20037;-62
2023/01/19 10:29:56;;;;;;;15.48;9.90;;;-0.70;99.90;;;;;;5053545;28;20116;-59
2023/01/19 10:32:29;;;;;;;16.00;10.20;;;-0.60;99.90;;;;;;5055829;28;20027;-62
2023/01/19 10:34:57;;;;;;;12.82;9.98;;;-0.70;99.90;;;;;;5073221;28;20021;-65
2023/01/19 10:37:36;;;;;;;17.83;9.48;;;-0.60;99.90;;;;;;5073037;28;20103;-62
2023/01/19 10:40:08;;;;;;;17.60;8.70;;;-0.60;99.90;;;;;;5073075;28;20556;-63
2023/01/19 10:42:33;;;;;;;16.92;9.90;;;-0.60;99.90;;;;;;5073277;28;20032;-62
2023/01/19 10:44:59;;;;;;;19.45;9.95;;;-0.50;99.90;;;;;;5073125;28;20020;-63
2023/01/19 10:47:34;;;;;;;19.05;9.55;;;-0.40;99.90;;;;;;5072959;28;20557;-63
2023/01/19 10:50:32;;;;;;;16.10;10.10;;;-0.40;99.90;;;;;;5071255;28;20044;-64
2023/01/19 10:53:04;;;;;;;17.88;9.63;;;-0.30;99.90;;;;;;5073708;28;20035;-60
2023/01/19 10:55:39;;;;;;;20.83;10.27;;;-0.30;99.90;;;;;;5073056;28;20028;-64
2023/01/19 10:58:24;;;;;;;21.00;11.55;;;-0.30;99.90;;;;;;5072898;28;20561;-63
2023/01/19 11:00:50;;;;;;;17.15;10.02;;;-0.20;99.90;;;;;;5072914;28;20033;-60
2023/01/19 11:03:30;;;;;;;15.57;11.05;;;-0.10;99.90;;;;;;5072880;28;20028;-63
2023/01/19 11:06:14;;;;;;;21.30;10.77;;;-0.10;99.90;;;;;;5065501;28;20029;-62
2023/01/19 11:08:41;;;;;;;26.33;10.23;;;0.20;99.90;;;;;;5034840;28;20037;-63
2023/01/19 11:11:08;;;;;;;15.32;9.80;;;0.10;99.90;;;;;;5051798;28;20025;-60
2023/01/19 11:13:35;;;;;;;16.38;10.43;;;0.10;99.90;;;;;;5052692;28;20099;-61
2023/01/19 11:16:07;;;;;;;17.23;10.77;;;0.20;99.90;;;;;;5052770;28;20029;-63
2023/01/19 11:18:38;;;;;;;18.90;10.65;;;0.20;99.90;;;;;;5052387;28;20619;-64
2023/01/19 11:21:08;;;;;;;20.58;10.30;;;0.30;99.90;;;;;;5052986;28;20040;-63
2023/01/19 11:23:44;;;;;;;33.28;9.95;;;0.40;99.90;;;;;;5053196;28;20166;-62
2023/01/19 11:26:15;;;;;;;15.25;11.00;;;0.70;99.90;;;;;;5052395;28;20067;-64
2023/01/19 11:28:53;;;;;;;14.70;9.48;;;1.00;99.90;;;;;;5052791;28;20017;-58
2023/01/19 11:31:29;;;;;;;15.48;10.05;;;1.40;99.90;;;;;;5052553;28;20425;-64
2023/01/19 11:33:59;;;;;;;13.70;8.95;;;1.60;99.90;;;;;;5051996;28;20053;-64
2023/01/19 11:36:29;;;;;;;9.30;8.48;;;1.70;99.90;;;;;;5052032;28;20025;-63
2023/01/19 11:38:58;;;;;;;9.85;7.95;;;1.90;99.90;;;;;;5053444;28;20060;-60
2023/01/19 11:41:29;;;;;;;13.20;9.05;;;1.90;99.90;;;;;;5035082;28;20083;-61
2023/01/19 11:44:41;;;;;;;13.85;9.57;;;2.00;99.90;;;;;;5051612;28;20565;-63
2023/01/19 11:47:26;;;;;;;10.25;8.07;;;2.10;99.90;;;;;;5052002;28;20453;-64
2023/01/19 11:50:10;;;;;;;23.43;8.00;;;2.20;99.90;;;;;;5052249;28;20105;-65
2023/01/19 11:52:45;;;;;;;9.95;8.80;;;2.40;99.90;;;;;;5051612;28;20021;-63
2023/01/19 11:55:25;;;;;;;13.10;8.80;;;2.50;99.90;;;;;;5052921;28;20079;-62
2023/01/19 11:57:52;;;;;;;24.58;8.32;;;2.60;99.90;;;;;;5051474;28;20052;-65
2023/01/19 12:00:46;;;;;;;12.40;8.57;;;2.70;99.90;;;;;;5051530;28;20464;-65
2023/01/19 12:03:15;;;;;;;13.30;8.55;;;3.00;99.90;;;;;;5044687;28;20067;-63
2023/01/19 12:05:46;;;;;;;14.77;8.07;;;3.00;99.90;;;;;;5051795;28;20048;-64
2023/01/19 12:08:17;;;;;;;20.92;9.25;;;2.90;99.90;;;;;;5051379;28;20035;-65
2023/01/19 12:10:46;;;;;;;15.45;10.68;;;2.80;99.90;;;;;;5051654;28;20481;-61
2023/01/19 12:13:25;;;;;;;14.05;8.20;;;2.80;99.90;;;;;;5068591;28;20028;-63
2023/01/19 12:16:12;;;;;;;11.93;8.68;;;2.90;99.90;;;;;;5071100;28;20032;-61
2023/01/19 12:18:46;;;;;;;12.43;9.38;;;2.80;99.90;;;;;;5070725;28;20039;-64
2023/01/19 12:21:13;;;;;;;;;;;2.60;99.90;;;;;;5071781;28;20029;-63
2023/01/19 12:23:41;;;;;;;15.75;9.45;;;2.50;99.90;;;;;;5071040;28;20339;-64
2023/01/19 12:26:27;;;;;;;11.38;9.07;;;2.50;99.90;;;;;;5071753;28;20107;-63
2023/01/19 12:28:57;;;;;;;11.93;9.45;;;2.40;99.90;;;;;;5070163;28;20128;-63
2023/01/19 12:31:23;;;;;;;17.73;8.95;;;2.50;99.90;;;;;;5071915;28;20020;-62
2023/01/19 12:33:50;;;;;;;14.80;9.40;;;2.40;99.90;;;;;;5071830;28;20017;-65
2023/01/19 12:36:16;;;;;;;24.85;10.20;;;2.40;99.90;;;;;;5071914;28;20021;-58
2023/01/19 12:38:46;;;;;;;11.65;8.45;;;2.40;99.90;;;;;;5071735;28;20401;-65
2023/01/19 12:41:31;;;;;;;16.42;9.25;;;2.50;99.90;;;;;;5072050;28;20127;-64
2023/01/19 12:44:18;;;;;;;14.35;9.45;;;2.50;99.90;;;;;;5070898;28;20081;-65
2023/01/19 12:47:02;;;;;;;15.50;8.82;;;2.60;99.90;;;;;;5037514;28;20086;-64
2023/01/19 12:49:37;;;;;;;14.43;10.25;;;2.50;99.90;;;;;;5052551;28;20029;-63